Time;durP1;ratioP1;P1;durP2;ratioP2;P2;SDS_P1;SDS_P2;PMS_P1;PMS_P2;Temp;Humidity;BMP_temperature;BMP_pressure;BME280_temperature;BME280_humidity;BME280_pressure;Samples;Min_cycle;Max_cycle;Signal;HPM_P1;HPM_P2
2022/05/15 00:02:32;;;;;;;12.27;5.47;;;12.50;99.90;;;;;;4996494;28;20173;-41
2022/05/15 00:04:58;;;;;;;10.63;5.10;;;12.40;99.90;;;;;;4994824;28;20613;-41
2022/05/15 00:07:23;;;;;;;14.37;5.83;;;12.50;99.90;;;;;;4994300;28;20274;-39
2022/05/15 00:09:49;;;;;;;13.57;5.67;;;12.40;99.90;;;;;;4994561;28;20186;-41
2022/05/15 00:12:16;;;;;;;11.00;5.47;;;12.40;99.90;;;;;;4994666;28;20547;-38
2022/05/15 00:14:42;;;;;;;10.00;5.27;;;12.40;99.90;;;;;;4994233;28;20186;-41
2022/05/15 00:17:08;;;;;;;10.10;5.00;;;12.30;99.90;;;;;;4994656;28;20208;-40
2022/05/15 00:19:34;;;;;;;6.80;4.53;;;12.30;99.90;;;;;;4994486;28;20281;-40
2022/05/15 00:22:00;;;;;;;6.77;4.33;;;12.30;99.90;;;;;;4994246;28;20179;-40
2022/05/15 00:24:28;;;;;;;8.90;4.50;;;12.30;99.90;;;;;;4993079;28;20213;-39
2022/05/15 00:26:54;;;;;;;9.60;5.27;;;12.10;99.90;;;;;;4994158;28;20761;-39
2022/05/15 00:29:20;;;;;;;15.40;5.50;;;12.20;99.90;;;;;;4994341;28;20206;-39
2022/05/15 00:31:46;;;;;;;10.80;5.43;;;12.20;99.90;;;;;;4994141;28;20217;-41
2022/05/15 00:34:11;;;;;;;11.17;5.83;;;12.20;99.90;;;;;;4994670;28;20225;-41
2022/05/15 00:36:37;;;;;;;10.20;5.43;;;12.20;99.90;;;;;;4993881;28;20186;-38
2022/05/15 00:39:05;;;;;;;11.93;4.47;;;12.20;99.90;;;;;;4995028;28;20218;-40
2022/05/15 00:41:31;;;;;;;8.90;4.60;;;12.20;99.90;;;;;;4993891;28;20206;-42
2022/05/15 00:43:58;;;;;;;10.90;4.63;;;12.20;99.90;;;;;;4993260;28;20658;-40
2022/05/15 00:46:36;;;;;;;11.27;4.53;;;12.10;99.90;;;;;;4994482;28;20193;-38
2022/05/15 00:49:05;;;;;;;12.40;5.20;;;12.00;99.90;;;;;;4994079;28;20166;-41
2022/05/15 00:51:40;;;;;;;7.73;4.67;;;12.00;99.90;;;;;;4994366;28;20186;-40
2022/05/15 00:54:07;;;;;;;11.00;5.87;;;12.00;99.90;;;;;;4995200;28;20201;-40
2022/05/15 00:56:37;;;;;;;11.97;6.43;;;11.90;99.90;;;;;;4995468;28;20197;-40
2022/05/15 00:59:09;;;;;;;9.83;5.30;;;11.80;99.90;;;;;;4994298;28;20276;-40
2022/05/15 01:01:34;;;;;;;9.63;5.60;;;11.80;99.90;;;;;;4994284;28;20217;-38
2022/05/15 01:04:01;;;;;;;7.93;4.90;;;11.80;99.90;;;;;;4994229;28;20185;-38
2022/05/15 01:06:29;;;;;;;9.17;5.07;;;11.70;99.90;;;;;;4994023;28;20198;-41
2022/05/15 01:08:55;;;;;;;8.77;5.17;;;11.70;99.90;;;;;;4994043;28;20197;-39
2022/05/15 01:11:21;;;;;;;9.23;5.50;;;11.70;99.90;;;;;;4994087;28;20201;-40
2022/05/15 01:13:50;;;;;;;6.70;4.87;;;11.60;99.90;;;;;;4994175;28;20197;-40
2022/05/15 01:16:22;;;;;;;10.90;5.50;;;11.60;99.90;;;;;;4993875;28;20274;-40
2022/05/15 01:18:48;;;;;;;9.17;6.30;;;11.60;99.90;;;;;;4992968;28;20222;-40
2022/05/15 01:21:26;;;;;;;12.33;6.00;;;11.50;99.90;;;;;;4993713;28;20801;-40
2022/05/15 01:23:52;;;;;;;9.70;6.60;;;11.50;99.90;;;;;;4994385;28;20700;-40
2022/05/15 01:26:19;;;;;;;13.97;6.47;;;11.50;99.90;;;;;;4994061;28;20254;-40
2022/05/15 01:28:45;;;;;;;10.93;6.50;;;11.50;99.90;;;;;;4992742;28;20322;-41
2022/05/15 01:31:12;;;;;;;9.30;6.23;;;11.50;99.90;;;;;;4994041;28;20728;-40
2022/05/15 01:33:38;;;;;;;7.77;5.27;;;11.40;99.90;;;;;;4993768;28;20256;-41
2022/05/15 01:36:06;;;;;;;11.13;5.93;;;11.40;99.90;;;;;;4993817;28;20311;-40
2022/05/15 01:38:32;;;;;;;7.80;5.57;;;11.30;99.90;;;;;;4976476;28;20202;-39
2022/05/15 01:40:57;;;;;;;8.80;6.07;;;11.30;99.90;;;;;;4993643;28;20181;-38
2022/05/15 01:43:23;;;;;;;9.87;5.80;;;11.30;99.90;;;;;;4993451;28;20175;-39
2022/05/15 01:45:48;;;;;;;11.27;6.53;;;11.30;99.90;;;;;;4993784;28;20252;-39
2022/05/15 01:48:14;;;;;;;8.80;5.77;;;11.20;99.90;;;;;;4993616;28;20198;-38
2022/05/15 01:50:40;;;;;;;9.47;5.20;;;11.10;99.90;;;;;;4993345;28;20174;-38
2022/05/15 01:53:05;;;;;;;8.57;4.87;;;11.10;99.90;;;;;;4994487;28;20194;-38
2022/05/15 01:55:31;;;;;;;8.97;4.70;;;11.00;99.90;;;;;;4995877;28;20194;-38
2022/05/15 01:57:57;;;;;;;7.93;5.30;;;11.00;99.90;;;;;;4997174;28;20202;-39
2022/05/15 02:00:25;;;;;;;7.57;4.97;;;10.90;99.90;;;;;;4997096;28;20615;-41
2022/05/15 02:02:51;;;;;;;7.60;4.77;;;10.90;99.90;;;;;;4997289;28;20182;-39
2022/05/15 02:05:18;;;;;;;9.40;5.57;;;10.80;99.90;;;;;;4996771;28;20189;-40
2022/05/15 02:07:44;;;;;;;7.87;4.87;;;10.70;99.90;;;;;;4996364;28;20193;-38
2022/05/15 02:10:11;;;;;;;10.43;5.47;;;10.70;99.90;;;;;;4996908;28;20246;-38
2022/05/15 02:12:37;;;;;;;7.83;5.30;;;10.60;99.90;;;;;;4995552;28;20193;-38
2022/05/15 02:15:04;;;;;;;10.93;6.00;;;10.60;99.90;;;;;;4996574;28;20174;-37
2022/05/15 02:17:30;;;;;;;10.67;6.17;;;10.60;99.90;;;;;;4996311;28;20211;-38
2022/05/15 02:19:56;;;;;;;14.70;6.63;;;10.60;99.90;;;;;;4998249;28;20205;-39
2022/05/15 02:22:22;;;;;;;14.80;6.57;;;10.60;99.90;;;;;;4996849;28;20188;-39
2022/05/15 02:24:47;;;;;;;9.37;5.37;;;10.60;99.90;;;;;;4996958;28;20243;-38
2022/05/15 02:27:13;;;;;;;10.47;5.17;;;10.60;99.90;;;;;;4996555;28;20673;-38
2022/05/15 02:29:39;;;;;;;8.70;5.33;;;10.60;99.90;;;;;;4996620;28;20179;-39
2022/05/15 02:32:05;;;;;;;7.17;5.03;;;10.50;99.90;;;;;;4996314;28;20578;-38
2022/05/15 02:34:30;;;;;;;10.43;5.83;;;10.50;99.90;;;;;;4995086;28;20209;-38
2022/05/15 02:36:56;;;;;;;10.93;5.97;;;10.40;99.90;;;;;;4996438;28;20291;-40
2022/05/15 02:39:22;;;;;;;9.53;5.57;;;10.30;99.90;;;;;;4996539;28;20206;-37
2022/05/15 02:41:47;;;;;;;13.40;6.23;;;10.30;99.90;;;;;;4996126;28;20182;-38
2022/05/15 02:44:13;;;;;;;15.53;5.93;;;10.30;99.90;;;;;;4996303;28;20191;-38
2022/05/15 02:46:38;;;;;;;10.80;6.23;;;10.30;99.90;;;;;;4996028;28;20212;-38
2022/05/15 02:51:49;;;;;;;12.70;6.37;;;10.30;99.90;;;;;;4996164;28;20566;-37
2022/05/15 02:54:15;;;;;;;21.17;7.60;;;10.30;99.90;;;;;;4996414;28;20181;-43
2022/05/15 02:56:41;;;;;;;11.70;7.00;;;10.30;99.90;;;;;;4995624;28;20200;-46
2022/05/15 02:59:07;;;;;;;16.23;6.67;;;10.30;99.90;;;;;;4995704;28;20212;-47
2022/05/15 03:01:34;;;;;;;15.83;6.53;;;10.30;99.90;;;;;;4995743;28;20183;-46
2022/05/15 03:04:00;;;;;;;24.93;7.07;;;10.30;99.90;;;;;;4996388;28;20544;-44
2022/05/15 03:06:25;;;;;;;18.37;6.67;;;10.30;99.90;;;;;;4994937;28;20549;-46
2022/05/15 03:08:52;;;;;;;28.77;7.57;;;10.30;99.90;;;;;;4995777;28;20297;-44
2022/05/15 03:11:18;;;;;;;24.10;7.27;;;10.30;99.90;;;;;;4995855;28;20596;-47
2022/05/15 03:13:45;;;;;;;18.40;8.40;;;10.30;99.90;;;;;;4995662;28;20179;-45
2022/05/15 03:16:12;;;;;;;16.90;8.10;;;10.30;99.90;;;;;;4996338;28;20275;-44
2022/05/15 03:18:42;;;;;;;19.77;7.47;;;10.40;99.90;;;;;;4995223;28;20570;-44
2022/05/15 03:21:10;;;;;;;21.80;8.30;;;10.50;99.90;;;;;;4995485;28;20727;-43
2022/05/15 03:23:36;;;;;;;18.97;7.30;;;10.50;99.90;;;;;;4995638;28;20194;-47
2022/05/15 03:26:01;;;;;;;14.47;6.70;;;10.50;99.90;;;;;;4995257;28;20278;-44
2022/05/15 03:28:27;;;;;;;29.40;6.70;;;10.40;99.90;;;;;;4995600;28;20236;-45
2022/05/15 03:30:52;;;;;;;15.53;7.23;;;10.30;99.90;;;;;;4995436;28;20189;-44
2022/05/15 03:33:18;;;;;;;16.43;7.13;;;10.30;99.90;;;;;;4995278;28;20181;-47
2022/05/15 03:35:43;;;;;;;13.63;7.60;;;10.30;99.90;;;;;;4995472;28;20194;-45
2022/05/15 03:38:10;;;;;;;17.97;8.57;;;10.30;99.90;;;;;;4994968;28;20203;-46
2022/05/15 03:40:36;;;;;;;16.83;8.83;;;10.30;99.90;;;;;;4995209;28;20218;-46
2022/05/15 03:43:02;;;;;;;16.33;8.43;;;10.30;99.90;;;;;;4995178;28;20203;-44
2022/05/15 03:45:29;;;;;;;15.87;8.63;;;10.40;99.90;;;;;;4994897;28;20572;-41
2022/05/15 03:47:55;;;;;;;15.73;8.40;;;10.30;99.90;;;;;;4995158;28;20194;-41
2022/05/15 03:50:25;;;;;;;14.47;8.70;;;10.30;99.90;;;;;;4993478;28;20189;-41
2022/05/15 03:52:51;;;;;;;17.17;9.50;;;10.30;99.90;;;;;;4994940;28;20211;-40
2022/05/15 03:55:18;;;;;;;17.03;9.07;;;10.30;99.90;;;;;;4995115;28;20213;-40
2022/05/15 03:57:44;;;;;;;17.00;9.10;;;10.30;99.90;;;;;;4994776;28;20205;-39
2022/05/15 04:00:14;;;;;;;17.40;8.33;;;10.40;99.90;;;;;;4995190;28;20221;-40
2022/05/15 04:02:40;;;;;;;14.77;9.37;;;10.30;99.90;;;;;;4994815;28;20173;-39
2022/05/15 04:05:07;;;;;;;17.63;8.60;;;10.30;99.90;;;;;;4994446;28;20190;-38
2022/05/15 04:07:33;;;;;;;15.93;8.13;;;10.30;99.90;;;;;;4994354;28;20632;-39
2022/05/15 04:09:59;;;;;;;13.30;7.77;;;10.30;99.90;;;;;;4996213;28;20179;-37
2022/05/15 04:12:25;;;;;;;17.50;9.50;;;10.20;99.90;;;;;;4994666;28;20265;-38
2022/05/15 04:14:50;;;;;;;18.53;10.07;;;10.30;99.90;;;;;;4994870;28;20681;-38
2022/05/15 04:17:16;;;;;;;19.20;8.47;;;10.20;99.90;;;;;;4994862;28;20198;-39
2022/05/15 04:19:41;;;;;;;16.90;9.20;;;10.30;99.90;;;;;;4994126;28;20204;-38
2022/05/15 04:22:07;;;;;;;12.20;8.77;;;10.30;99.90;;;;;;4994284;28;20712;-38
2022/05/15 04:24:34;;;;;;;15.30;9.63;;;10.30;99.90;;;;;;4994223;28;20175;-38
2022/05/15 04:27:01;;;;;;;16.47;8.87;;;10.30;99.90;;;;;;4993988;28;20689;-40
2022/05/15 04:29:27;;;;;;;13.30;9.17;;;10.30;99.90;;;;;;4994079;28;20198;-43
2022/05/15 04:31:55;;;;;;;14.93;8.93;;;10.40;99.90;;;;;;4994029;28;20186;-42
2022/05/15 04:34:27;;;;;;;11.63;8.90;;;10.40;99.90;;;;;;4992906;28;20209;-42
2022/05/15 04:36:53;;;;;;;15.47;9.07;;;10.40;99.90;;;;;;4994113;28;20236;-43
2022/05/15 04:39:19;;;;;;;16.83;8.93;;;10.50;99.90;;;;;;4993872;28;20734;-43
2022/05/15 04:41:45;;;;;;;19.17;9.80;;;10.60;99.90;;;;;;4993964;28;20238;-41
2022/05/15 04:44:11;;;;;;;11.67;8.90;;;10.50;99.90;;;;;;4994414;28;20185;-42
2022/05/15 04:46:37;;;;;;;15.43;8.83;;;10.60;99.90;;;;;;4993767;28;20180;-41
2022/05/15 04:49:04;;;;;;;11.83;8.83;;;10.60;99.90;;;;;;4993860;28;20616;-42
2022/05/15 04:51:30;;;;;;;13.60;9.47;;;10.70;99.90;;;;;;4994387;28;20596;-45
2022/05/15 04:53:55;;;;;;;17.90;9.47;;;10.80;99.90;;;;;;4992518;28;20190;-42
2022/05/15 04:56:22;;;;;;;14.70;8.33;;;10.90;99.90;;;;;;4993910;28;20204;-45
2022/05/15 04:58:48;;;;;;;15.03;9.17;;;10.90;99.90;;;;;;4993761;28;20194;-47
2022/05/15 05:01:14;;;;;;;15.47;8.80;;;11.10;99.90;;;;;;4993981;28;20320;-43
2022/05/15 05:03:40;;;;;;;18.30;9.40;;;11.20;99.90;;;;;;4993807;28;20735;-44
2022/05/15 05:06:06;;;;;;;15.33;9.37;;;11.20;99.90;;;;;;4994058;28;20180;-45
2022/05/15 05:08:32;;;;;;;14.63;9.67;;;11.30;99.90;;;;;;4993966;28;20282;-45
2022/05/15 05:10:58;;;;;;;16.10;10.70;;;11.40;99.90;;;;;;4993695;28;20184;-44
2022/05/15 05:13:23;;;;;;;23.87;10.63;;;11.40;99.90;;;;;;4992649;28;20180;-44
2022/05/15 05:15:49;;;;;;;15.53;9.70;;;11.40;99.90;;;;;;4993985;28;20588;-47
2022/05/15 05:18:17;;;;;;;14.27;9.80;;;11.50;99.90;;;;;;4993467;28;20563;-46
2022/05/15 05:20:44;;;;;;;12.53;10.07;;;11.60;99.90;;;;;;4993810;28;20634;-44
2022/05/15 05:23:11;;;;;;;16.80;9.67;;;11.70;99.90;;;;;;4993755;28;20636;-46
2022/05/15 05:25:36;;;;;;;12.97;9.60;;;11.70;99.90;;;;;;4993862;28;20184;-44
2022/05/15 05:28:03;;;;;;;15.77;9.90;;;11.80;99.90;;;;;;4992201;28;20202;-46
2022/05/15 05:30:29;;;;;;;14.93;10.33;;;11.90;99.90;;;;;;4996303;28;20216;-44
2022/05/15 05:32:55;;;;;;;15.37;10.50;;;11.90;99.90;;;;;;4997526;28;20186;-46
2022/05/15 05:35:22;;;;;;;14.37;10.47;;;12.00;99.90;;;;;;4997375;28;20250;-45
2022/05/15 05:37:48;;;;;;;16.60;10.47;;;12.10;99.90;;;;;;4997507;28;20208;-44
2022/05/15 05:40:14;;;;;;;17.73;10.00;;;12.20;99.90;;;;;;4997273;28;20208;-46
2022/05/15 05:42:40;;;;;;;14.57;10.00;;;12.30;99.90;;;;;;4997198;28;20211;-45
2022/05/15 05:45:07;;;;;;;16.80;10.77;;;12.50;99.90;;;;;;4997143;28;20207;-44
2022/05/15 05:47:33;;;;;;;18.17;10.10;;;12.60;99.90;;;;;;4997190;28;20204;-45
2022/05/15 05:49:59;;;;;;;19.73;10.13;;;12.70;99.90;;;;;;4997297;28;20183;-39
2022/05/15 05:52:25;;;;;;;16.23;9.17;;;12.90;99.90;;;;;;4997699;28;20611;-41
2022/05/15 05:54:52;;;;;;;12.83;9.13;;;13.10;99.90;;;;;;4997646;28;20191;-40
2022/05/15 05:57:18;;;;;;;15.40;8.90;;;13.20;99.90;;;;;;4997400;28;20339;-41
2022/05/15 05:59:43;;;;;;;15.23;9.37;;;13.40;99.90;;;;;;4997340;28;20547;-41
2022/05/15 06:02:09;;;;;;;17.20;9.30;;;13.50;99.90;;;;;;4997687;28;20185;-40
2022/05/15 06:04:42;;;;;;;12.20;8.57;;;13.80;99.90;;;;;;4996940;28;20179;-42
2022/05/15 06:07:11;;;;;;;16.33;8.70;;;13.90;99.90;;;;;;4996744;28;20196;-42
2022/05/15 06:09:39;;;;;;;17.27;8.63;;;14.10;99.90;;;;;;4996989;28;20189;-40
2022/05/15 06:12:05;;;;;;;11.23;8.40;;;14.20;99.90;;;;;;4997106;28;20193;-41
2022/05/15 06:14:30;;;;;;;19.97;9.03;;;14.30;99.90;;;;;;4997113;28;20189;-42
2022/05/15 06:16:57;;;;;;;12.47;8.83;;;14.50;99.90;;;;;;4997013;28;20296;-41
2022/05/15 06:19:23;;;;;;;14.20;8.63;;;14.70;99.90;;;;;;4996942;28;20210;-42
2022/05/15 06:21:48;;;;;;;15.83;8.97;;;15.00;99.90;;;;;;4996761;28;20228;-41
2022/05/15 06:24:14;;;;;;;13.27;8.87;;;15.20;99.90;;;;;;4996989;28;20253;-41
2022/05/15 06:26:40;;;;;;;11.20;8.57;;;15.50;99.90;;;;;;4996470;28;20179;-43
2022/05/15 06:29:05;;;;;;;13.43;8.70;;;15.80;99.90;;;;;;4996557;28;20233;-41
2022/05/15 06:31:31;;;;;;;10.63;7.80;;;15.90;99.90;;;;;;4996448;28;20213;-42
2022/05/15 06:33:56;;;;;;;11.37;7.47;;;16.00;99.90;;;;;;4996231;28;20182;-39
2022/05/15 06:36:22;;;;;;;10.67;7.27;;;16.10;99.90;;;;;;4996241;28;20210;-41
2022/05/15 06:38:48;;;;;;;11.73;6.63;;;16.40;99.90;;;;;;4996034;28;20200;-41
2022/05/15 06:41:13;;;;;;;9.17;6.13;;;16.50;99.90;;;;;;4995253;28;20182;-40
2022/05/15 06:43:39;;;;;;;12.10;5.93;;;16.70;99.90;;;;;;4994940;28;20269;-40
2022/05/15 06:46:04;;;;;;;11.00;5.80;;;16.90;99.90;;;;;;4996337;28;20544;-43
2022/05/15 06:48:30;;;;;;;11.33;6.80;;;16.90;99.90;;;;;;4995879;28;20210;-43
2022/05/15 06:50:56;;;;;;;7.73;5.70;;;17.00;99.90;;;;;;4996358;28;20197;-44
2022/05/15 06:53:21;;;;;;;13.73;5.93;;;17.20;99.90;;;;;;4995943;28;20182;-44
2022/05/15 06:58:33;;;;;;;10.53;6.10;;;17.40;99.90;;;;;;4996322;28;20209;-44
2022/05/15 07:00:59;;;;;;;12.83;5.97;;;17.50;99.90;;;;;;4996598;28;20190;-44
2022/05/15 07:03:25;;;;;;;12.90;6.37;;;17.60;99.90;;;;;;4996979;28;20190;-38
2022/05/15 07:05:50;;;;;;;13.67;6.10;;;17.70;99.90;;;;;;4996307;28;20218;-41
2022/05/15 07:08:17;;;;;;;14.20;6.10;;;17.80;99.90;;;;;;4997347;28;20202;-39
2022/05/15 07:10:43;;;;;;;9.57;5.67;;;18.00;99.90;;;;;;4997111;28;20597;-41
2022/05/15 07:13:08;;;;;;;12.23;5.50;;;18.10;99.90;;;;;;4996925;28;20190;-41
2022/05/15 07:15:36;;;;;;;9.93;6.13;;;18.30;99.90;;;;;;4995938;28;20190;-40
2022/05/15 07:18:03;;;;;;;10.67;6.07;;;18.50;99.90;;;;;;4995549;28;20553;-41
2022/05/15 07:20:29;;;;;;;9.87;5.97;;;18.60;99.90;;;;;;4995656;28;20241;-43
2022/05/15 07:22:56;;;;;;;10.40;5.80;;;18.60;99.90;;;;;;4995325;28;20210;-45
2022/05/15 07:25:22;;;;;;;11.30;6.57;;;18.60;99.90;;;;;;4995516;28;20179;-44
2022/05/15 07:27:48;;;;;;;10.27;5.43;;;18.60;99.90;;;;;;4993863;28;20226;-44
2022/05/15 07:30:13;;;;;;;9.53;5.70;;;18.70;99.90;;;;;;4995487;28;20638;-45
2022/05/15 07:32:39;;;;;;;11.30;6.37;;;18.80;99.90;;;;;;4995204;28;20315;-42
2022/05/15 07:35:05;;;;;;;13.97;6.07;;;18.90;99.90;;;;;;4993896;28;20190;-44
2022/05/15 07:37:31;;;;;;;10.57;5.37;;;19.10;99.90;;;;;;4995272;28;20208;-45
2022/05/15 07:39:57;;;;;;;9.77;5.27;;;19.30;99.90;;;;;;4995202;28;20214;-44
2022/05/15 07:42:22;;;;;;;11.73;5.73;;;19.40;99.90;;;;;;4995235;28;20186;-45
2022/05/15 07:44:48;;;;;;;12.40;4.93;;;19.50;99.90;;;;;;4995299;28;20185;-44
2022/05/15 07:47:13;;;;;;;12.77;4.93;;;19.50;99.90;;;;;;4995094;28;20198;-45
2022/05/15 07:49:40;;;;;;;8.77;4.30;;;19.70;99.90;;;;;;4993564;28;20186;-45
2022/05/15 07:52:07;;;;;;;7.30;4.47;;;19.90;99.90;;;;;;4994751;28;20193;-44
2022/05/15 07:54:33;;;;;;;9.53;4.47;;;20.10;99.90;;;;;;4995022;28;20281;-43
2022/05/15 07:56:59;;;;;;;9.60;4.80;;;20.30;99.90;;;;;;4994570;28;20241;-44
2022/05/15 07:59:25;;;;;;;8.47;4.57;;;20.40;99.90;;;;;;4994927;28;20205;-45
2022/05/15 08:01:54;;;;;;;9.73;4.70;;;20.50;99.90;;;;;;4995272;28;20155;-44
2022/05/15 08:04:20;;;;;;;7.70;4.53;;;20.60;99.90;;;;;;4993710;28;20178;-42
2022/05/15 08:09:29;;;;;;;9.83;4.47;;;20.90;99.90;;;;;;4994623;28;20185;-42
2022/05/15 08:11:55;;;;;;;9.07;4.03;;;21.00;99.90;;;;;;4994580;28;20661;-40
2022/05/15 08:14:21;;;;;;;7.63;4.20;;;21.10;99.90;;;;;;4994777;28;20277;-42
2022/05/15 08:16:46;;;;;;;9.27;3.63;;;21.20;99.90;;;;;;4994814;28;20186;-42
2022/05/15 08:24:41;;;;;;;9.47;4.20;;;21.40;99.90;;;;;;4994731;28;20172;-42
2022/05/15 08:27:09;;;;;;;10.27;4.33;;;21.60;99.90;;;;;;4994961;28;20194;-40
2022/05/15 08:29:35;;;;;;;11.27;4.80;;;21.60;99.90;;;;;;4994620;28;20639;-40
2022/05/15 08:32:02;;;;;;;6.40;3.73;;;21.60;99.90;;;;;;4994937;28;20635;-40
2022/05/15 08:34:29;;;;;;;20.60;5.17;;;21.70;99.90;;;;;;4994886;28;20216;-40
2022/05/15 08:36:55;;;;;;;8.00;4.47;;;21.80;99.90;;;;;;4992817;28;20233;-41
2022/05/15 08:39:21;;;;;;;11.80;4.47;;;21.90;99.90;;;;;;4994510;28;20612;-42
2022/05/15 08:41:48;;;;;;;10.53;4.90;;;22.10;99.90;;;;;;4994142;28;20182;-41
2022/05/15 08:44:29;;;;;;;10.83;5.50;;;22.20;99.90;;;;;;4992787;28;20180;-42
2022/05/15 08:47:22;;;;;;;8.80;3.87;;;22.30;99.90;;;;;;4992834;28;20212;-40
2022/05/15 08:50:27;;;;;;;9.60;4.37;;;22.30;99.90;;;;;;4994196;28;20672;-41
2022/05/15 08:53:15;;;;;;;9.03;3.60;;;22.40;99.90;;;;;;4972555;28;20182;-40
2022/05/15 08:55:44;;;;;;;8.87;3.97;;;22.50;99.90;;;;;;4993396;28;20264;-40
2022/05/15 08:58:29;;;;;;;8.80;3.90;;;22.70;99.90;;;;;;4994057;28;20382;-41
2022/05/15 09:00:55;;;;;;;11.70;3.90;;;22.70;99.90;;;;;;4993899;28;20274;-40
2022/05/15 09:03:30;;;;;;;8.57;3.47;;;22.90;99.90;;;;;;4995298;28;20269;-46
2022/05/15 09:06:03;;;;;;;8.03;4.03;;;23.00;99.90;;;;;;4997750;28;20584;-46
2022/05/15 09:08:57;;;;;;;7.93;4.07;;;23.10;99.90;;;;;;4997804;28;20194;-46
2022/05/15 09:12:01;;;;;;;9.70;3.63;;;23.00;99.90;;;;;;4997781;28;20174;-47
2022/05/15 09:14:38;;;;;;;8.87;4.40;;;23.10;99.90;;;;;;4998093;28;20178;-41
2022/05/15 09:17:15;;;;;;;10.60;3.37;;;23.00;99.90;;;;;;4997709;28;20237;-40
2022/05/15 09:19:41;;;;;;;7.07;3.53;;;23.00;99.90;;;;;;4997794;28;20752;-42
2022/05/15 09:22:11;;;;;;;10.63;3.47;;;22.90;99.90;;;;;;4997668;28;20261;-41
2022/05/15 09:24:46;;;;;;;9.87;4.27;;;23.00;99.90;;;;;;4997639;28;20167;-42
2022/05/15 09:27:15;;;;;;;8.43;3.53;;;23.10;99.90;;;;;;4996206;28;20202;-41
2022/05/15 09:29:40;;;;;;;11.97;3.57;;;23.20;99.90;;;;;;4997464;28;20189;-41
2022/05/15 09:32:38;;;;;;;6.27;3.40;;;23.30;99.90;;;;;;4997749;28;20183;-41
2022/05/15 09:35:13;;;;;;;8.33;3.23;;;23.40;99.90;;;;;;4995723;28;20202;-41
2022/05/15 09:43:35;;;;;;;6.30;3.13;;;23.60;99.90;;;;;;4997764;28;20178;-40
2022/05/15 09:46:14;;;;;;;9.70;3.30;;;23.70;99.90;;;;;;4997490;28;20214;-41
2022/05/15 09:49:06;;;;;;;6.57;3.80;;;23.80;99.90;;;;;;4997123;28;20206;-40
2022/05/15 09:51:47;;;;;;;5.43;3.30;;;23.90;99.90;;;;;;4997359;28;20167;-42
2022/05/15 09:54:37;;;;;;;5.60;2.97;;;23.90;99.90;;;;;;4997123;28;20244;-42
2022/05/15 09:57:14;;;;;;;7.87;3.40;;;24.00;99.90;;;;;;4997243;28;20213;-42
2022/05/15 09:59:41;;;;;;;7.77;2.87;;;24.10;99.90;;;;;;4997165;28;20198;-41
2022/05/15 10:02:18;;;;;;;9.77;2.63;;;24.20;99.90;;;;;;4997115;28;20240;-42
2022/05/15 10:04:51;;;;;;;6.00;2.77;;;24.20;99.90;;;;;;4997671;28;20173;-41
2022/05/15 10:07:40;;;;;;;12.13;3.33;;;24.30;99.90;;;;;;4996951;28;20194;-43
2022/05/15 10:10:29;;;;;;;8.37;3.00;;;24.40;99.90;;;;;;4997096;28;20170;-42
2022/05/15 10:13:00;;;;;;;4.93;2.50;;;24.60;99.90;;;;;;4996874;28;20174;-42
2022/05/15 10:15:36;;;;;;;4.23;2.80;;;24.70;99.90;;;;;;4997198;28;20163;-42
2022/05/15 10:18:05;;;;;;;6.77;3.07;;;24.80;99.90;;;;;;4998732;28;20697;-42
2022/05/15 10:20:38;;;;;;;7.17;2.77;;;24.90;99.90;;;;;;4998627;28;20210;-42
2022/05/15 10:23:09;;;;;;;11.03;2.57;;;24.90;99.90;;;;;;4996419;28;20163;-42
2022/05/15 10:25:44;;;;;;;7.40;2.87;;;25.00;99.90;;;;;;4996571;28;20171;-42
2022/05/15 10:28:19;;;;;;;6.40;2.40;;;24.90;99.90;;;;;;4996553;28;20264;-40
2022/05/15 10:31:18;;;;;;;6.73;2.43;;;25.10;99.90;;;;;;4996642;28;20170;-43
2022/05/15 10:33:49;;;;;;;9.93;2.33;;;25.10;99.90;;;;;;4993534;28;20536;-42
2022/05/15 10:36:24;;;;;;;5.47;2.43;;;25.30;99.90;;;;;;4996297;28;20178;-43
2022/05/15 10:39:05;;;;;;;5.43;2.30;;;25.40;99.90;;;;;;4996263;28;20204;-43
2022/05/15 10:42:15;;;;;;;8.63;3.10;;;25.50;99.90;;;;;;4995262;28;20206;-42
2022/05/15 10:45:00;;;;;;;6.53;2.30;;;25.70;99.90;;;;;;4974564;28;20557;-42
2022/05/15 10:47:37;;;;;;;9.57;2.80;;;25.70;99.90;;;;;;4974672;28;20285;-42
2022/05/15 10:50:34;;;;;;;8.97;3.17;;;25.60;99.90;;;;;;4989940;28;20670;-42
2022/05/15 10:57:21;;;;;;;11.50;2.83;;;25.80;99.90;;;;;;4986268;28;20253;-43
2022/05/15 10:59:23;;;;;;;5.43;2.70;;;25.90;99.90;;;;;;4996212;28;20217;-43
2022/05/15 11:02:02;;;;;;;5.30;2.23;;;26.00;99.90;;;;;;4996124;28;20174;-42
2022/05/15 11:04:53;;;;;;;7.33;2.63;;;26.00;98.80;;;;;;4996026;28;20253;-43
2022/05/15 11:07:25;;;;;;;3.75;2.25;;;26.00;99.90;;;;;;4995990;28;20187;-42
2022/05/15 11:10:01;;;;;;;4.18;1.90;;;26.10;99.90;;;;;;4995936;28;20162;-42
2022/05/15 11:13:09;;;;;;;7.68;2.22;;;26.10;99.90;;;;;;4995909;28;20174;-43
2022/05/15 11:16:03;;;;;;;5.07;2.22;;;26.10;99.30;;;;;;4996496;28;20257;-41
2022/05/15 11:19:11;;;;;;;5.95;2.10;;;26.00;99.10;;;;;;4995705;28;20256;-42
2022/05/15 11:21:48;;;;;;;5.43;2.20;;;26.10;99.60;;;;;;4995936;28;20174;-43
2022/05/15 11:24:36;;;;;;;6.10;2.40;;;26.20;99.90;;;;;;4995640;28;20162;-43
2022/05/15 11:27:15;;;;;;;5.05;2.30;;;26.30;99.90;;;;;;4995109;28;20289;-41
2022/05/15 11:29:46;;;;;;;3.15;1.95;;;26.40;98.40;;;;;;4995265;28;20233;-43
2022/05/15 11:32:29;;;;;;;4.32;2.20;;;26.50;99.50;;;;;;4995512;28;20171;-43
2022/05/15 11:35:22;;;;;;;3.33;1.90;;;26.60;99.90;;;;;;4995092;28;20637;-42
2022/05/15 11:37:56;;;;;;;3.72;2.13;;;26.70;98.30;;;;;;4995220;28;20280;-42
2022/05/15 11:40:51;;;;;;;5.05;2.10;;;26.70;99.30;;;;;;4995153;28;20217;-43
2022/05/15 11:43:26;;;;;;;4.47;1.85;;;26.80;98.80;;;;;;4994466;28;20216;-42
2022/05/15 11:45:54;;;;;;;3.97;2.03;;;26.80;98.60;;;;;;4995197;28;20206;-42
2022/05/15 11:48:31;;;;;;;2.75;1.85;;;26.80;97.90;;;;;;4995091;28;20198;-44
2022/05/15 11:51:02;;;;;;;6.90;2.55;;;26.90;98.10;;;;;;4995121;28;20166;-42
2022/05/15 11:53:48;;;;;;;3.30;1.73;;;27.10;99.80;;;;;;4994962;28;20229;-42
2022/05/15 11:56:39;;;;;;;3.25;1.92;;;27.20;99.90;;;;;;4994610;28;20194;-42
2022/05/15 11:59:24;;;;;;;3.42;1.90;;;27.30;99.90;;;;;;4993410;28;20556;-43
2022/05/15 12:02:00;;;;;;;3.40;1.80;;;27.40;98.90;;;;;;4995323;28;20681;-43
2022/05/15 12:04:35;;;;;;;3.92;1.70;;;27.40;95.70;;;;;;4994691;28;20614;-44
2022/05/15 12:07:00;;;;;;;7.20;2.00;;;27.50;95.70;;;;;;4994686;28;20596;-42
2022/05/15 12:09:31;;;;;;;3.58;1.70;;;27.50;96.80;;;;;;4994697;28;20219;-43
2022/05/15 12:12:37;;;;;;;4.93;1.63;;;27.50;95.70;;;;;;4994431;28;20665;-43
2022/05/15 12:15:16;;;;;;;3.47;1.80;;;27.60;96.00;;;;;;4990362;28;20260;-42
2022/05/15 12:17:51;;;;;;;3.22;1.50;;;27.70;97.30;;;;;;4994622;28;20190;-42
2022/05/15 12:20:21;;;;;;;2.78;1.48;;;27.90;96.30;;;;;;4994389;28;20233;-44
2022/05/15 12:22:53;;;;;;;3.15;1.60;;;28.00;94.60;;;;;;4994239;28;20178;-42
2022/05/15 12:25:26;;;;;;;13.65;1.83;;;28.00;92.90;;;;;;4994443;28;20186;-42
2022/05/15 12:30:49;;;;;;;4.30;1.85;;;28.10;95.50;;;;;;4994233;28;20250;-43
2022/05/15 12:33:23;;;;;;;5.25;2.03;;;28.20;93.10;;;;;;4994072;28;20178;-44
2022/05/15 12:35:48;;;;;;;2.63;1.67;;;28.20;92.30;;;;;;4994127;28;20259;-44
2022/05/15 12:38:22;;;;;;;3.78;1.67;;;28.20;94.60;;;;;;4993785;28;20254;-44
2022/05/15 12:41:12;;;;;;;2.58;1.58;;;28.30;93.60;;;;;;4993745;28;20209;-44
2022/05/15 12:43:44;;;;;;;2.58;1.67;;;28.30;94.80;;;;;;4993936;28;20265;-44
2022/05/15 12:46:23;;;;;;;5.95;1.70;;;28.40;93.00;;;;;;4994027;28;20647;-43
2022/05/15 12:48:49;;;;;;;3.03;1.63;;;28.40;93.50;;;;;;4994109;28;20205;-44
2022/05/15 12:51:16;;;;;;;3.60;1.80;;;28.50;94.00;;;;;;4993873;28;20549;-43
2022/05/15 12:53:47;;;;;;;4.47;1.67;;;28.60;95.80;;;;;;4993819;28;20728;-43
2022/05/15 12:56:15;;;;;;;6.60;2.05;;;28.70;94.50;;;;;;4993693;28;20285;-44
2022/05/15 12:58:42;;;;;;;5.50;1.95;;;28.90;95.50;;;;;;4994275;28;20280;-44
2022/05/15 13:01:12;;;;;;;7.10;1.90;;;28.90;95.10;;;;;;4993991;28;20233;-42
2022/05/15 13:03:42;;;;;;;3.05;1.50;;;28.90;94.30;;;;;;4993801;28;20178;-42
2022/05/15 13:06:08;;;;;;;4.07;1.40;;;29.00;93.40;;;;;;4994894;28;20601;-44
2022/05/15 13:08:46;;;;;;;5.22;1.42;;;29.00;93.00;;;;;;4993910;28;20199;-43
2022/05/15 13:11:21;;;;;;;4.78;2.05;;;28.90;91.70;;;;;;4993741;28;20201;-43
2022/05/15 13:13:47;;;;;;;3.85;1.83;;;28.90;92.70;;;;;;4994000;28;20177;-43
2022/05/15 13:16:19;;;;;;;6.95;1.50;;;28.90;93.90;;;;;;4993924;28;20182;-43
2022/05/15 13:18:47;;;;;;;3.72;1.90;;;28.90;93.00;;;;;;4993576;28;20201;-43
2022/05/15 13:21:13;;;;;;;3.47;1.80;;;28.90;90.50;;;;;;4993804;28;20260;-43
2022/05/15 13:23:45;;;;;;;2.50;1.60;;;28.90;92.40;;;;;;4993844;28;20182;-42